Time;durP1;ratioP1;P1;durP2;ratioP2;P2;SDS_P1;SDS_P2;PMS_P1;PMS_P2;Temp;Humidity;BMP_temperature;BMP_pressure;BME280_temperature;BME280_humidity;BME280_pressure;Samples;Min_cycle;Max_cycle;Signal;HPM_P1;HPM_P2
2022/12/28 00:00:54;;;;;;;;;10.67;8.33;;;;;9.64;78.67;101665.34;5078337;27;45524;-71
2022/12/28 00:03:20;;;;;;;;;8.00;6.67;;;;;9.33;78.42;101595.97;5078468;27;45209;-73
2022/12/28 00:05:45;;;;;;;;;9.67;8.67;;;;;9.53;78.36;101642.25;5077786;28;45614;-72
2022/12/28 00:08:10;;;;;;;;;6.33;5.00;;;;;9.75;78.55;101657.38;5078184;27;45375;-71
2022/12/28 00:10:36;;;;;;;;;4.67;4.67;;;;;9.65;78.40;101641.31;5076592;28;45383;-72
2022/12/28 00:13:01;;;;;;;;;5.67;5.33;;;;;9.74;78.23;101642.41;5078227;27;45437;-72
2022/12/28 00:15:26;;;;;;;;;7.00;7.00;;;;;8.79;78.42;101471.81;5075966;28;45473;-72
2022/12/28 00:17:52;;;;;;;;;8.33;7.00;;;;;9.67;78.37;101615.50;5077753;27;45463;-72
2022/12/28 00:20:17;;;;;;;;;6.00;6.00;;;;;9.45;77.91;101595.06;5077974;27;45450;-72
2022/12/28 00:22:43;;;;;;;;;5.00;3.67;;;;;9.76;77.76;101640.50;5078487;27;45343;-71
2022/12/28 00:25:09;;;;;;;;;8.33;8.33;;;;;9.76;77.97;101636.03;5077599;27;45643;-72
2022/12/28 00:27:34;;;;;;;;;10.00;8.33;;;;;9.62;78.42;101601.75;5076102;28;45455;-73
2022/12/28 00:30:00;;;;;;;;;7.00;5.00;;;;;9.83;78.38;101620.50;5077435;28;45286;-71
2022/12/28 00:32:25;;;;;;;;;4.67;4.67;;;;;7.32;77.55;101193.16;5076468;28;45466;-73
2022/12/28 00:34:51;;;;;;;;;7.33;5.00;;;;;9.74;78.08;101602.59;5077498;27;46409;-72
2022/12/28 00:37:16;;;;;;;;;8.00;6.00;;;;;9.85;78.09;101613.25;5077427;27;45485;-71
2022/12/28 00:39:41;;;;;;;;;5.67;5.67;;;;;8.60;77.67;101399.06;5077201;28;48949;-70
2022/12/28 00:42:07;;;;;;;;;5.33;5.33;;;;;9.87;77.98;101600.69;5077675;27;45301;-71
2022/12/28 00:44:33;;;;;;;;;8.00;5.33;;;;;9.87;77.69;101603.34;5077219;27;45500;-71
2022/12/28 00:46:58;;;;;;;;;7.33;6.67;;;;;9.06;77.62;101445.03;5077471;28;45227;-71
2022/12/28 00:49:23;;;;;;;;;4.67;4.67;;;;;9.91;77.67;101596.00;5077445;28;45328;-71
2022/12/28 00:51:49;;;;;;;;;6.67;6.67;;;;;9.54;77.48;101531.59;5079740;27;45228;-71
2022/12/28 00:54:14;;;;;;;;;6.00;6.00;;;;;9.92;77.70;101582.59;5080574;27;46243;-72
2022/12/28 00:56:44;;;;;;;;;5.00;5.00;;;;;9.67;77.57;101532.34;5080876;27;45508;-72
2022/12/28 00:59:09;;;;;;;;;7.00;6.00;;;;;9.58;77.75;101525.91;5081025;27;45401;-72
2022/12/28 01:01:35;;;;;;;;;5.33;5.00;;;;;9.68;78.05;101547.31;5081036;28;45299;-70
2022/12/28 01:04:00;;;;;;;;;5.33;5.33;;;;;9.85;77.84;101575.22;5079189;28;45899;-73
2022/12/28 01:06:27;;;;;;;;;7.67;4.67;;;;;9.26;78.01;101459.41;5080605;27;45378;-72
2022/12/28 01:08:52;;;;;;;;;6.67;5.67;;;;;9.93;78.02;101570.16;5080746;28;45390;-72
2022/12/28 01:11:21;;;;;;;;;7.00;6.00;;;;;9.94;77.72;101593.94;5080698;27;45397;-70
2022/12/28 01:13:47;;;;;;;;;5.00;5.00;;;;;9.95;78.05;101570.88;5078524;28;45975;-71
2022/12/28 01:16:18;;;;;;;;;5.33;5.00;;;;;9.96;77.96;101569.91;5041961;28;45590;-72
2022/12/28 01:18:45;;;;;;;;;5.00;5.00;;;;;10.00;77.62;101561.56;5060290;28;45225;-71
2022/12/28 01:21:15;;;;;;;;;6.00;4.67;;;;;9.73;77.53;101511.47;5060378;28;45475;-75
2022/12/28 01:23:41;;;;;;;;;7.67;4.67;;;;;10.00;77.52;101558.91;5058664;28;47578;-72
2022/12/28 01:26:06;;;;;;;;;4.00;4.00;;;;;9.50;77.64;101488.53;5059756;28;45258;-72
2022/12/28 01:28:32;;;;;;;;;5.33;4.33;;;;;10.02;77.70;101550.84;5058776;28;45343;-71
2022/12/28 01:31:03;;;;;;;;;7.00;6.00;;;;;9.77;77.52;101520.03;5060262;28;45319;-72
2022/12/28 01:33:28;;;;;;;;;7.00;5.33;;;;;9.56;77.40;101484.53;5059780;28;46176;-71
2022/12/28 01:35:53;;;;;;;;;5.33;5.33;;;;;9.96;77.66;101536.22;5059259;28;62604;-72
2022/12/28 01:38:19;;;;;;;;;7.00;5.00;;;;;10.01;77.42;101546.47;5059811;28;46930;-71
2022/12/28 01:40:44;;;;;;;;;4.00;4.00;;;;;9.96;77.44;101546.84;5059313;28;60259;-70
2022/12/28 01:43:13;;;;;;;;;2.33;2.33;;;;;10.07;77.71;101554.81;5059451;28;55395;-71
2022/12/28 01:45:39;;;;;;;;;6.33;4.00;;;;;9.95;77.16;101537.19;5041450;28;46705;-71
2022/12/28 01:48:15;;;;;;;;;6.00;5.67;;;;;9.52;77.54;101483.94;5059926;28;45534;-68
2022/12/28 01:50:42;;;;;;;;;8.00;6.67;;;;;10.09;77.57;101552.03;5060067;28;45438;-70
2022/12/28 01:53:07;;;;;;;;;6.00;5.00;;;;;10.12;77.11;101557.13;5059514;28;45624;-72
2022/12/28 01:55:37;;;;;;;;;6.00;6.00;;;;;9.32;76.90;101421.78;5059424;28;45371;-72
2022/12/28 01:58:12;;;;;;;;;6.33;4.00;;;;;9.95;77.09;101520.41;5041711;28;45310;-73
2022/12/28 02:00:39;;;;;;;;;6.67;5.00;;;;;9.97;77.01;101521.13;5060338;28;45212;-71
2022/12/28 02:03:10;;;;;;;;;6.33;4.00;;;;;10.13;77.32;101536.69;5058763;28;46467;-72
2022/12/28 02:05:39;;;;;;;;;4.00;4.00;;;;;9.96;77.17;101492.88;5061836;28;45550;-72
2022/12/28 02:08:12;;;;;;;;;6.33;5.00;;;;;10.24;77.30;101544.72;5059508;28;45282;-72
2022/12/28 02:10:40;;;;;;;;;4.00;4.00;;;;;10.21;76.89;101534.28;5041266;28;45191;-71
2022/12/28 02:13:06;;;;;;;;;6.33;4.00;;;;;10.23;77.56;101535.06;5059233;28;47149;-70
2022/12/28 02:15:31;;;;;;;;;7.00;7.00;;;;;9.40;77.36;101400.78;5059057;28;45491;-70
2022/12/28 02:17:57;;;;;;;;;6.33;5.33;;;;;9.92;77.17;101488.78;5059241;28;45242;-70
2022/12/28 02:20:30;;;;;;;;;7.67;5.33;;;;;9.45;76.95;101397.81;5059634;28;45535;-73
2022/12/28 02:23:11;;;;;;;;;8.33;5.67;;;;;10.24;77.45;101534.94;5059009;28;46711;-72
2022/12/28 02:25:52;;;;;;;;;8.00;8.00;;;;;10.25;77.63;101535.78;5058906;28;45205;-71
2022/12/28 02:28:41;;;;;;;;;7.67;5.00;;;;;10.24;77.28;101534.09;5059544;28;45345;-72
2022/12/28 02:31:16;;;;;;;;;7.67;7.00;;;;;10.29;77.31;101531.91;5059534;28;45400;-71
2022/12/28 02:33:57;;;;;;;;;4.33;4.33;;;;;10.19;77.08;101510.47;5058875;28;45842;-70
2022/12/28 02:36:29;;;;;;;;;5.00;5.00;;;;;10.13;77.06;101496.84;5059027;28;45391;-70
2022/12/28 02:38:58;;;;;;;;;8.00;7.00;;;;;10.17;77.01;101500.94;5059189;28;45564;-71
2022/12/28 02:41:25;;;;;;;;;6.67;6.00;;;;;9.96;77.02;101456.53;5059198;28;45675;-70
2022/12/28 02:43:52;;;;;;;;;10.00;6.00;;;;;10.27;77.32;101525.84;5058717;28;45617;-70
2022/12/28 02:52:17;;;;;;;;;6.00;5.00;;;;;10.31;77.41;101508.69;5058972;28;45573;-70
2022/12/28 02:58:16;;;;;;;;;6.67;6.67;;;;;10.34;77.23;101497.81;5058568;28;45525;-73
2022/12/28 03:00:54;;;;;;;;;9.00;8.00;;;;;10.36;76.72;101498.53;5058605;28;45349;-71
2022/12/28 03:03:37;;;;;;;;;9.67;8.00;;;;;10.37;76.90;101502.88;5058968;28;45273;-70
2022/12/28 03:09:23;;;;;;;;;6.67;6.33;;;;;10.22;77.23;101472.25;5058393;28;45422;-72
2022/12/28 03:12:04;;;;;;;;;6.00;6.00;;;;;10.23;77.27;101485.41;5058695;28;45328;-70
2022/12/28 03:14:46;;;;;;;;;6.00;6.00;;;;;10.14;77.72;101458.69;5058079;28;45432;-71
2022/12/28 03:31:19;;;;;;;;;9.67;8.33;;;;;10.00;77.15;101398.69;5058104;28;45428;-72
2022/12/28 03:33:46;;;;;;;;;6.33;6.33;;;;;10.11;76.72;101422.56;5058205;28;45447;-71
2022/12/28 03:36:29;;;;;;;;;8.67;6.67;;;;;10.42;77.15;101466.16;5058279;28;45397;-72
2022/12/28 03:39:20;;;;;;;;;9.00;8.00;;;;;10.29;77.48;101450.34;5057787;28;45503;-72
2022/12/28 03:44:51;;;;;;;;;7.00;5.00;;;;;10.25;77.61;101434.78;5058079;28;45536;-72
2022/12/28 03:47:19;;;;;;;;;5.67;5.67;;;;;10.24;77.66;101454.34;5058028;28;45302;-72
2022/12/28 03:49:45;;;;;;;;;9.33;6.00;;;;;10.34;77.67;101452.63;5057585;28;45636;-72
2022/12/28 03:52:12;;;;;;;;;5.67;5.67;;;;;10.31;77.65;101437.78;5057678;28;45321;-71
2022/12/28 03:54:39;;;;;;;;;6.33;6.33;;;;;9.85;77.56;101376.03;5039577;28;45484;-72
2022/12/28 03:57:04;;;;;;;;;8.00;8.00;;;;;10.36;77.94;101454.19;5058073;28;45413;-70
2022/12/28 03:59:29;;;;;;;;;6.00;5.00;;;;;10.34;78.05;101450.81;5057912;28;45745;-73
2022/12/28 04:01:55;;;;;;;;;7.00;5.67;;;;;9.60;77.46;101327.53;5057891;28;45487;-71
2022/12/28 04:04:20;;;;;;;;;5.00;5.00;;;;;10.36;77.54;101445.38;5057370;28;57703;-71
2022/12/28 04:06:45;;;;;;;;;4.00;3.00;;;;;9.89;77.53;101370.34;5057926;28;45431;-71
2022/12/28 04:09:11;;;;;;;;;7.00;6.00;;;;;9.55;77.66;101297.03;5057589;28;45714;-71
2022/12/28 04:11:36;;;;;;;;;5.67;5.67;;;;;10.01;77.45;101382.66;5056884;28;63685;-70
2022/12/28 04:14:05;;;;;;;;;7.00;7.00;;;;;10.38;77.79;101435.44;5043308;28;45539;-71
2022/12/28 04:16:30;;;;;;;;;6.00;6.00;;;;;10.27;77.52;101414.25;5078077;27;45638;-72
2022/12/28 04:18:55;;;;;;;;;7.00;6.00;;;;;9.70;77.73;101307.25;5077007;27;60610;-71
2022/12/28 04:21:21;;;;;;;;;8.00;5.67;;;;;10.40;77.67;101420.22;5076378;27;45311;-72
2022/12/28 04:23:46;;;;;;;;;7.00;5.00;;;;;10.16;78.00;101390.31;5077838;27;45231;-75
2022/12/28 04:26:13;;;;;;;;;8.00;6.00;;;;;10.42;77.83;101420.97;5075434;28;45494;-72
2022/12/28 04:28:40;;;;;;;;;5.00;5.00;;;;;9.82;78.00;101316.06;5077613;27;46190;-71
2022/12/28 04:31:07;;;;;;;;;6.67;5.00;;;;;10.41;77.86;101413.97;5076168;28;45344;-71
2022/12/28 04:33:34;;;;;;;;;6.33;6.33;;;;;9.74;78.50;101302.53;5076223;28;45435;-73
2022/12/28 04:36:14;;;;;;;;;6.67;5.67;;;;;10.33;78.44;101400.44;5077684;28;45400;-72
2022/12/28 04:38:39;;;;;;;;;4.67;4.00;;;;;10.35;78.92;101409.13;5077137;27;45777;-71
2022/12/28 04:41:06;;;;;;;;;7.00;4.67;;;;;9.97;78.53;101335.19;5077084;27;45286;-73
2022/12/28 04:43:32;;;;;;;;;5.67;5.67;;;;;10.36;78.51;101405.50;5076162;28;45362;-71
2022/12/28 04:46:01;;;;;;;;;5.67;4.00;;;;;10.27;78.27;101382.34;5077497;27;45539;-72
2022/12/28 04:48:27;;;;;;;;;6.33;6.00;;;;;9.84;78.79;101311.47;5077195;27;45774;-72
2022/12/28 04:50:53;;;;;;;;;8.00;5.00;;;;;10.25;78.31;101385.13;5076713;27;45424;-74
2022/12/28 04:53:19;;;;;;;;;5.00;3.33;;;;;10.18;79.00;101373.28;5077084;27;45342;-72
2022/12/28 04:55:44;;;;;;;;;6.00;5.33;;;;;10.03;78.44;101343.50;5077349;27;45323;-71
2022/12/28 04:58:10;;;;;;;;;5.33;4.00;;;;;10.35;78.80;101387.88;5076645;28;46218;-72
2022/12/28 05:00:35;;;;;;;;;4.67;4.67;;;;;10.38;78.78;101398.22;5075634;28;45337;-71
2022/12/28 05:03:00;;;;;;;;;6.00;4.33;;;;;9.99;78.51;101322.63;5077328;27;45480;-72
2022/12/28 05:05:27;;;;;;;;;5.67;5.67;;;;;10.10;79.33;101341.19;5077356;28;45450;-71
2022/12/28 05:07:54;;;;;;;;;4.67;4.33;;;;;10.19;79.14;101350.19;5075196;28;47899;-73
2022/12/28 05:10:19;;;;;;;;;4.67;4.00;;;;;9.96;78.86;101304.28;5076831;27;45339;-73
2022/12/28 05:12:44;;;;;;;;;4.00;4.00;;;;;10.42;78.84;101382.91;5077230;27;45427;-72
2022/12/28 05:15:10;;;;;;;;;5.00;5.00;;;;;10.23;79.11;101343.72;5063688;28;45429;-72
2022/12/28 05:17:35;;;;;;;;;3.00;3.00;;;;;10.20;79.13;101333.28;5056305;28;45852;-74
2022/12/28 05:20:02;;;;;;;;;5.67;5.33;;;;;10.41;79.36;101370.56;5056527;28;45179;-73
2022/12/28 05:22:27;;;;;;;;;6.67;5.67;;;;;10.31;79.37;101352.72;5038570;28;45468;-71
2022/12/28 05:24:52;;;;;;;;;7.00;6.00;;;;;10.06;79.35;101319.34;5056698;28;45594;-70
2022/12/28 05:27:18;;;;;;;;;5.33;4.00;;;;;10.30;79.44;101361.66;5056005;28;47009;-74
2022/12/28 05:29:43;;;;;;;;;5.33;4.67;;;;;10.38;79.54;101366.34;5056425;28;45369;-71
2022/12/28 05:32:08;;;;;;;;;5.00;5.00;;;;;10.19;79.90;101335.09;5056396;28;45412;-72
2022/12/28 05:34:34;;;;;;;;;5.67;5.67;;;;;10.33;79.87;101350.78;5056698;28;45461;-72
2022/12/28 05:36:59;;;;;;;;;5.67;5.33;;;;;10.22;79.72;101342.03;5056790;28;46629;-71
2022/12/28 05:39:25;;;;;;;;;6.00;5.00;;;;;10.31;79.41;101341.25;5059645;28;45436;-72
2022/12/28 05:41:50;;;;;;;;;3.33;3.00;;;;;10.38;80.33;101361.03;5060054;28;45697;-71
2022/12/28 05:44:15;;;;;;;;;5.33;4.67;;;;;10.36;79.64;101357.66;5041669;28;45288;-73
2022/12/28 05:46:41;;;;;;;;;10.33;5.33;;;;;10.36;79.74;101358.50;5059410;28;46177;-72
2022/12/28 05:49:09;;;;;;;;;6.00;6.00;;;;;10.30;79.77;101336.91;5059658;28;45491;-72
2022/12/28 05:51:35;;;;;;;;;8.33;5.67;;;;;10.43;79.94;101339.41;5059718;28;45515;-72
2022/12/28 05:54:03;;;;;;;;;5.33;5.00;;;;;10.40;80.04;101345.78;5059896;28;45278;-70
2022/12/28 05:56:31;;;;;;;;;8.00;6.33;;;;;10.38;79.55;101347.72;5059623;28;46513;-72
2022/12/28 05:58:59;;;;;;;;;6.00;5.00;;;;;10.36;80.28;101355.00;5041347;28;45420;-71
2022/12/28 06:01:29;;;;;;;;;9.00;7.00;;;;;10.39;79.64;101336.13;5059499;28;45259;-72
2022/12/28 06:03:57;;;;;;;;;5.00;5.00;;;;;9.91;79.69;101256.84;5059600;28;45478;-72
2022/12/28 06:06:23;;;;;;;;;9.33;7.00;;;;;9.93;79.86;101270.84;5040962;28;47978;-71
2022/12/28 06:08:49;;;;;;;;;7.00;5.67;;;;;10.36;79.71;101345.22;5059450;28;45850;-73
2022/12/28 06:11:20;;;;;;;;;3.67;3.67;;;;;10.38;79.32;101338.91;5059619;28;45420;-72
2022/12/28 06:13:45;;;;;;;;;6.00;5.00;;;;;10.26;79.49;101306.25;5059613;28;45307;-70
2022/12/28 06:16:12;;;;;;;;;7.67;6.33;;;;;10.34;79.70;101325.03;5041121;28;48696;-70
2022/12/28 06:18:37;;;;;;;;;5.00;5.00;;;;;10.11;79.47;101284.41;5059186;28;45244;-73
2022/12/28 06:21:06;;;;;;;;;5.00;5.00;;;;;10.09;79.45;101256.31;5059343;28;45422;-71
2022/12/28 06:23:31;;;;;;;;;8.67;5.33;;;;;10.39;79.46;101298.91;5058065;28;45300;-70
2022/12/28 06:25:59;;;;;;;;;5.33;5.00;;;;;10.39;78.90;101295.41;5040851;28;48303;-71
2022/12/28 06:28:25;;;;;;;;;9.00;5.67;;;;;9.74;78.75;101191.03;5040768;28;46159;-71
2022/12/28 06:30:51;;;;;;;;;5.67;5.67;;;;;10.44;79.38;101303.88;5059090;28;45729;-74
2022/12/28 06:33:16;;;;;;;;;6.33;6.33;;;;;9.85;79.19;101203.41;5040995;28;45540;-72
2022/12/28 06:35:41;;;;;;;;;6.00;5.00;;;;;10.41;79.16;101286.38;5058729;28;46401;-71
2022/12/28 06:38:07;;;;;;;;;5.67;5.67;;;;;10.37;79.13;101284.91;5058985;28;45349;-72
2022/12/28 06:40:32;;;;;;;;;8.00;7.33;;;;;10.25;79.40;101256.75;5058893;28;45242;-73
2022/12/28 06:42:57;;;;;;;;;6.00;5.00;;;;;10.42;79.03;101288.06;5058837;28;45490;-73
2022/12/28 06:45:23;;;;;;;;;5.67;4.67;;;;;9.77;78.91;101167.72;5058411;28;47217;-73
2022/12/28 06:47:48;;;;;;;;;6.67;5.33;;;;;10.07;78.87;101222.72;5058634;28;45332;-72
2022/12/28 06:50:13;;;;;;;;;10.00;6.33;;;;;10.46;78.74;101284.16;5057969;28;45261;-73
2022/12/28 06:52:39;;;;;;;;;7.00;5.33;;;;;10.22;78.70;101235.75;5057451;28;45616;-72
2022/12/28 06:55:04;;;;;;;;;7.33;5.00;;;;;9.97;78.54;101200.56;5058733;28;45528;-73
2022/12/28 06:57:30;;;;;;;;;4.67;4.67;;;;;9.92;78.36;101184.19;5040178;28;45339;-72
2022/12/28 06:59:55;;;;;;;;;4.67;4.67;;;;;10.03;78.64;101197.41;5058582;28;45523;-73
2022/12/28 07:02:20;;;;;;;;;2.00;2.00;;;;;9.49;78.67;101112.59;5058716;28;45203;-71
2022/12/28 07:04:46;;;;;;;;;7.00;6.00;;;;;10.50;78.41;101272.28;5058280;28;46503;-72
2022/12/28 07:07:11;;;;;;;;;6.33;6.33;;;;;10.39;78.54;101248.41;5058095;28;49918;-70
2022/12/28 07:09:36;;;;;;;;;5.00;5.00;;;;;10.06;78.50;101201.63;5058424;28;45170;-71
2022/12/28 07:12:02;;;;;;;;;4.67;4.00;;;;;9.57;78.43;101118.09;5058798;28;45738;-71
2022/12/28 07:14:27;;;;;;;;;6.00;5.00;;;;;10.25;78.52;101222.19;5058077;28;45909;-72
2022/12/28 07:16:52;;;;;;;;;5.67;5.67;;;;;10.47;78.69;101251.28;5057746;28;55672;-72
2022/12/28 07:19:18;;;;;;;;;6.33;6.33;;;;;10.15;78.86;101199.97;5058133;28;45494;-72
2022/12/28 07:21:43;;;;;;;;;4.33;4.33;;;;;10.45;78.58;101255.88;5040251;28;45517;-73
2022/12/28 07:24:09;;;;;;;;;6.33;6.00;;;;;10.27;78.54;101209.63;5057888;28;45653;-73
2022/12/28 07:26:36;;;;;;;;;9.00;7.00;;;;;10.51;78.11;101239.41;5058143;28;45466;-74
2022/12/28 07:29:04;;;;;;;;;6.67;6.00;;;;;10.55;78.46;101239.97;5058695;28;45313;-72
2022/12/28 07:31:33;;;;;;;;;5.00;4.67;;;;;9.84;77.77;101117.59;5058322;28;45377;-71
2022/12/28 07:33:59;;;;;;;;;4.00;4.00;;;;;10.53;78.24;101231.28;5057588;28;45639;-72
2022/12/28 07:36:27;;;;;;;;;9.00;6.33;;;;;10.02;77.87;101147.91;5039500;28;45386;-72
2022/12/28 07:38:53;;;;;;;;;7.67;6.00;;;;;9.68;77.81;101082.69;5058322;28;45238;-72
2022/12/28 07:41:20;;;;;;;;;6.00;4.00;;;;;10.52;78.33;101234.94;5057775;28;45286;-71
2022/12/28 07:43:46;;;;;;;;;5.33;5.33;;;;;9.78;77.77;101107.47;5057595;28;46468;-71
2022/12/28 07:46:17;;;;;;;;;7.33;7.33;;;;;10.16;77.93;101159.16;5057295;28;45277;-73
2022/12/28 07:48:43;;;;;;;;;7.00;6.00;;;;;10.24;77.60;101172.69;5057982;28;45443;-71
2022/12/28 07:51:18;;;;;;;;;4.33;4.33;;;;;10.53;77.88;101221.50;5058045;28;45277;-74
2022/12/28 07:53:45;;;;;;;;;6.67;5.67;;;;;10.47;78.39;101222.03;5039384;28;47749;-73
2022/12/28 07:56:11;;;;;;;;;8.00;6.00;;;;;9.73;78.14;101083.97;5057598;28;45285;-73
2022/12/28 07:58:36;;;;;;;;;6.67;5.67;;;;;9.76;78.28;101094.31;5057492;28;45241;-70
2022/12/28 08:01:13;;;;;;;;;7.67;6.00;;;;;10.51;77.99;101204.00;5057981;28;45511;-72
2022/12/28 08:03:40;;;;;;;;;7.00;4.00;;;;;10.47;78.48;101198.13;5039779;28;48352;-74
2022/12/28 08:06:08;;;;;;;;;4.33;4.00;;;;;10.38;78.07;101159.03;5057289;28;45444;-72
2022/12/28 08:08:37;;;;;;;;;4.00;4.00;;;;;10.46;78.29;101196.44;5039876;28;45432;-72
2022/12/28 08:11:08;;;;;;;;;9.67;8.67;;;;;9.73;77.76;101061.91;5039750;28;45699;-73
2022/12/28 08:13:35;;;;;;;;;5.67;5.67;;;;;10.56;78.11;101215.91;5039953;28;46682;-74
2022/12/28 08:16:01;;;;;;;;;5.33;4.00;;;;;10.56;77.92;101194.66;5057635;28;45226;-73
2022/12/28 08:18:27;;;;;;;;;4.67;4.67;;;;;10.52;77.37;101190.56;5057279;28;45500;-72
2022/12/28 08:20:53;;;;;;;;;6.33;6.33;;;;;10.53;77.78;101173.66;5057833;28;45850;-73
2022/12/28 08:23:18;;;;;;;;;4.67;4.67;;;;;10.50;77.45;101173.91;5058021;28;45784;-72
2022/12/28 08:25:43;;;;;;;;;5.00;4.33;;;;;10.46;77.59;101150.41;5057218;28;45464;-73
2022/12/28 08:28:09;;;;;;;;;9.33;7.00;;;;;10.51;77.66;101157.00;5057499;28;45242;-73
2022/12/28 08:30:34;;;;;;;;;5.00;5.00;;;;;9.58;77.50;100999.47;5039824;28;45550;-72
2022/12/28 08:32:59;;;;;;;;;4.67;4.00;;;;;9.96;77.18;101062.56;5057068;28;45935;-73
2022/12/28 08:35:25;;;;;;;;;8.33;6.67;;;;;10.44;76.95;101133.75;5038258;28;60708;-73
2022/12/28 08:37:54;;;;;;;;;7.00;6.00;;;;;10.73;77.31;101173.72;5057810;28;45369;-73
2022/12/28 08:40:19;;;;;;;;;4.33;4.33;;;;;10.68;76.67;101184.78;5057416;28;45649;-73
2022/12/28 08:42:45;;;;;;;;;6.00;5.00;;;;;10.73;76.74;101168.41;5056594;28;45802;-73
2022/12/28 08:45:11;;;;;;;;;5.33;5.00;;;;;10.71;76.64;101178.34;5056947;28;45421;-72
2022/12/28 08:47:36;;;;;;;;;5.00;5.00;;;;;10.71;77.48;101175.69;5057251;28;45223;-72
2022/12/28 08:50:01;;;;;;;;;8.00;5.33;;;;;10.22;76.87;101089.59;5057065;28;45236;-73
2022/12/28 08:52:26;;;;;;;;;5.00;4.67;;;;;10.74;76.88;101164.78;5056640;28;46121;-72
2022/12/28 08:54:52;;;;;;;;;5.00;5.00;;;;;10.40;76.57;101113.69;5056794;28;45274;-75
2022/12/28 08:57:17;;;;;;;;;8.00;6.00;;;;;10.66;76.74;101149.50;5056948;28;45443;-73
2022/12/28 08:59:43;;;;;;;;;6.67;6.67;;;;;10.80;76.66;101175.69;5056970;28;45423;-72
2022/12/28 09:02:12;;;;;;;;;7.00;4.67;;;;;10.33;76.23;101097.47;5056626;28;46057;-73
2022/12/28 09:04:37;;;;;;;;;5.00;5.00;;;;;10.85;76.17;101162.88;5056715;28;45408;-72
2022/12/28 09:07:02;;;;;;;;;5.00;5.00;;;;;10.63;75.99;101126.69;5056379;28;47101;-74
2022/12/28 09:09:28;;;;;;;;;4.67;4.67;;;;;10.85;75.88;101151.38;5038081;28;45876;-74
2022/12/28 09:11:53;;;;;;;;;7.00;6.00;;;;;10.94;75.78;101155.88;5039324;28;47267;-72
2022/12/28 09:14:19;;;;;;;;;7.33;5.00;;;;;10.88;75.75;101130.66;5050155;28;45261;-73
2022/12/28 09:16:44;;;;;;;;;6.67;4.67;;;;;11.03;75.50;101155.06;5080577;28;45523;-73
2022/12/28 09:19:12;;;;;;;;;10.67;9.67;;;;;11.05;75.45;101153.13;5080664;27;45243;-72
2022/12/28 09:21:38;;;;;;;;;5.67;5.67;;;;;11.08;75.57;101141.34;5078930;27;47010;-75
2022/12/28 09:24:04;;;;;;;;;8.33;5.33;;;;;11.07;75.81;101145.00;5080097;27;45390;-75
2022/12/28 09:26:33;;;;;;;;;2.00;2.00;;;;;11.04;75.36;101122.16;5080850;28;45460;-73
2022/12/28 09:29:01;;;;;;;;;5.33;3.00;;;;;11.09;75.42;101146.53;5079236;28;45184;-73
2022/12/28 09:31:28;;;;;;;;;8.00;6.67;;;;;11.09;75.25;101138.56;5080173;28;46294;-73
2022/12/28 09:34:00;;;;;;;;;7.00;5.67;;;;;10.83;75.41;101079.72;5078804;28;45491;-73
2022/12/28 09:36:37;;;;;;;;;5.67;5.67;;;;;11.12;75.58;101116.97;5080702;27;45307;-74
2022/12/28 09:39:09;;;;;;;;;5.33;5.00;;;;;11.15;74.96;101131.81;5080469;28;45500;-72
2022/12/28 09:42:02;;;;;;;;;5.67;4.33;;;;;11.12;75.15;101116.97;5079960;27;45564;-73
2022/12/28 09:44:44;;;;;;;;;5.33;5.33;;;;;11.16;74.96;101129.03;5079994;27;45367;-74
2022/12/28 09:47:37;;;;;;;;;6.00;5.00;;;;;11.19;75.41;101128.75;5080001;27;45470;-71
2022/12/28 09:50:06;;;;;;;;;6.00;6.00;;;;;11.03;75.12;101106.34;5080386;28;45519;-74
2022/12/28 09:52:53;;;;;;;;;5.33;5.33;;;;;11.05;75.31;101115.88;5078612;28;46906;-73
2022/12/28 09:55:19;;;;;;;;;4.67;4.67;;;;;10.39;74.95;100984.44;5078899;27;45465;-75
2022/12/28 09:57:49;;;;;;;;;8.00;8.00;;;;;11.24;74.95;101131.00;5078393;28;45503;-75
2022/12/28 10:00:36;;;;;;;;;11.00;10.00;;;;;11.23;74.89;101114.22;5095549;27;45391;-73
2022/12/28 10:03:10;;;;;;;;;7.00;5.00;;;;;11.20;74.05;101111.78;5079444;27;46879;-72
2022/12/28 10:05:36;;;;;;;;;5.00;4.00;;;;;10.37;74.60;100976.59;5078422;28;45488;-72
2022/12/28 10:08:02;;;;;;;;;5.00;5.00;;;;;11.02;73.93;101078.91;5079604;27;45447;-73
2022/12/28 10:10:28;;;;;;;;;6.00;6.00;;;;;11.24;74.34;101113.22;5079791;28;45441;-73
2022/12/28 10:12:55;;;;;;;;;21.00;21.00;;;;;10.95;74.16;101044.00;5077745;27;47932;-74
2022/12/28 10:15:24;;;;;;;;;4.67;4.67;;;;;11.39;73.82;101118.09;5077573;27;45465;-73
2022/12/28 10:17:50;;;;;;;;;4.00;4.00;;;;;11.06;73.73;101059.00;5079773;27;45609;-72
2022/12/28 10:20:18;;;;;;;;;7.00;5.00;;;;;11.36;73.70;101102.41;5079994;27;45263;-74
2022/12/28 10:22:48;;;;;;;;;6.67;5.67;;;;;10.36;73.24;100938.56;5079618;27;46442;-75
2022/12/28 10:25:20;;;;;;;;;4.33;4.33;;;;;10.47;72.97;100945.59;5079767;28;45513;-73
2022/12/28 10:27:46;;;;;;;;;4.00;4.00;;;;;10.96;72.54;101020.91;5080904;27;45248;-73
2022/12/28 10:30:18;;;;;;;;;4.00;4.00;;;;;11.47;72.67;101110.28;5080925;27;45249;-74
2022/12/28 10:32:53;;;;;;;;;5.67;4.00;;;;;10.92;72.24;101008.88;5077932;28;46536;-73
2022/12/28 10:35:28;;;;;;;;;5.33;5.33;;;;;11.34;72.48;101081.28;5079444;28;45741;-74
2022/12/28 10:38:00;;;;;;;;;4.33;4.33;;;;;10.59;72.21;100944.47;5079221;27;45331;-74
2022/12/28 10:40:29;;;;;;;;;5.00;5.00;;;;;11.50;71.88;101091.34;5079328;27;45253;-73
2022/12/28 10:42:56;;;;;;;;;6.33;5.00;;;;;11.48;71.87;101102.16;5078350;27;46302;-72
2022/12/28 10:45:31;;;;;;;;;3.00;3.00;;;;;10.96;71.76;101008.44;5078646;27;46383;-74
2022/12/28 10:47:56;;;;;;;;;4.67;4.67;;;;;11.38;71.56;101065.84;5079271;27;45485;-72
2022/12/28 10:50:40;;;;;;;;;3.00;3.00;;;;;11.43;71.45;101060.97;5079314;27;45266;-73
2022/12/28 10:53:22;;;;;;;;;6.33;6.33;;;;;11.27;71.47;101040.25;5077320;28;47222;-74
2022/12/28 10:55:47;;;;;;;;;5.67;4.67;;;;;10.87;71.38;100976.53;5078655;27;45407;-72
2022/12/28 10:58:16;;;;;;;;;6.33;6.33;;;;;11.39;71.92;101064.88;5078203;27;45494;-74
2022/12/28 11:00:41;;;;;;;;;4.33;2.33;;;;;11.34;71.30;101048.47;5079054;28;45323;-73
2022/12/28 11:03:17;;;;;;;;;5.00;4.00;;;;;11.41;71.35;101063.78;5078341;27;46307;-73
2022/12/28 11:05:43;;;;;;;;;10.00;6.00;;;;;10.91;71.45;100976.09;5078744;27;45433;-74
2022/12/28 11:08:13;;;;;;;;;4.00;3.00;;;;;11.09;71.57;101008.16;5077393;27;45373;-74
2022/12/28 11:10:39;;;;;;;;;2.00;2.00;;;;;10.97;71.14;100966.72;5079075;27;45459;-75
2022/12/28 11:13:18;;;;;;;;;5.00;5.00;;;;;11.31;71.39;101030.13;5078927;28;46352;-73
2022/12/28 11:15:43;;;;;;;;;6.00;5.00;;;;;11.31;71.29;101015.00;5077282;28;45585;-74
2022/12/28 11:18:19;;;;;;;;;3.00;3.00;;;;;11.46;70.72;101010.09;5078668;27;45181;-75
2022/12/28 11:20:49;;;;;;;;;4.00;4.00;;;;;10.88;70.74;100898.41;5077111;28;45551;-73
2022/12/28 11:23:18;;;;;;;;;4.33;4.33;;;;;11.61;70.32;100992.66;5078026;27;46106;-74
2022/12/28 11:25:44;;;;;;;;;4.67;4.00;;;;;11.32;70.56;100949.31;5076990;28;45667;-74
2022/12/28 11:28:21;;;;;;;;;3.00;3.00;;;;;11.20;69.95;100906.03;5078947;27;45306;-73
2022/12/28 11:30:47;;;;;;;;;6.00;5.33;;;;;11.40;69.81;100920.97;5078938;28;45352;-74
2022/12/28 11:33:39;;;;;;;;;5.00;5.00;;;;;11.58;69.65;100937.03;5076934;28;45468;-73
2022/12/28 11:36:11;;;;;;;;;4.33;3.33;;;;;9.65;69.31;100602.47;5077687;27;45327;-73
2022/12/28 11:38:41;;;;;;;;;4.67;3.33;;;;;11.84;69.13;100964.72;5078258;27;45254;-75
2022/12/28 11:41:31;;;;;;;;;4.67;3.00;;;;;11.86;69.76;100960.09;5077404;28;45375;-73
2022/12/28 11:44:42;;;;;;;;;5.00;4.00;;;;;11.87;69.76;100958.28;5076220;28;45281;-74
2022/12/28 11:47:14;;;;;;;;;5.00;4.00;;;;;11.90;69.22;100949.13;5074501;27;45239;-73
2022/12/28 11:49:40;;;;;;;;;5.00;4.00;;;;;11.46;69.79;100869.00;5078301;27;45329;-73
2022/12/28 11:52:14;;;;;;;;;5.00;5.00;;;;;11.91;69.47;100937.50;5078106;28;45531;-73
2022/12/28 11:54:53;;;;;;;;;4.33;4.33;;;;;11.58;69.99;100889.09;5076467;28;48923;-74
2022/12/28 11:57:39;;;;;;;;;5.00;4.00;;;;;11.58;69.33;100867.78;5077880;27;45469;-75
2022/12/28 12:00:37;;;;;;;;;3.33;3.33;;;;;11.99;69.39;100929.59;5076594;28;45254;-75
2022/12/28 12:03:05;;;;;;;;;4.00;4.00;;;;;11.67;69.44;100866.94;5077963;27;45395;-74